sensor_id;sensor_type;location;lat;lon;timestamp;P1;durP1;ratioP1;P2;durP2;ratioP2
62353;SDS011;48391;49.184;2.418;2022-08-04T00:00:20;12.80;;;2.00;;
62353;SDS011;48391;49.184;2.418;2022-08-04T00:08:11;5.93;;;1.13;;
62353;SDS011;48391;49.184;2.418;2022-08-04T00:10:42;5.43;;;1.60;;
62353;SDS011;48391;49.184;2.418;2022-08-04T00:13:13;4.60;;;1.95;;
62353;SDS011;48391;49.184;2.418;2022-08-04T00:15:39;3.30;;;0.98;;
62353;SDS011;48391;49.184;2.418;2022-08-04T00:18:07;4.95;;;1.90;;
62353;SDS011;48391;49.184;2.418;2022-08-04T00:20:34;2.97;;;1.30;;
62353;SDS011;48391;49.184;2.418;2022-08-04T00:23:02;4.72;;;2.00;;
62353;SDS011;48391;49.184;2.418;2022-08-04T00:25:29;3.55;;;1.63;;
62353;SDS011;48391;49.184;2.418;2022-08-04T00:27:56;2.90;;;1.85;;
62353;SDS011;48391;49.184;2.418;2022-08-04T00:30:22;6.97;;;1.48;;
62353;SDS011;48391;49.184;2.418;2022-08-04T00:32:48;1.92;;;1.40;;
62353;SDS011;48391;49.184;2.418;2022-08-04T00:35:14;6.63;;;2.15;;
62353;SDS011;48391;49.184;2.418;2022-08-04T00:37:43;3.20;;;1.38;;
62353;SDS011;48391;49.184;2.418;2022-08-04T00:40:31;1.67;;;1.10;;
62353;SDS011;48391;49.184;2.418;2022-08-04T00:50:43;5.03;;;1.75;;
62353;SDS011;48391;49.184;2.418;2022-08-04T00:53:30;10.48;;;1.50;;
62353;SDS011;48391;49.184;2.418;2022-08-04T01:01:02;17.17;;;1.85;;
62353;SDS011;48391;49.184;2.418;2022-08-04T01:16:07;3.15;;;1.20;;
62353;SDS011;48391;49.184;2.418;2022-08-04T01:18:45;7.95;;;2.30;;
62353;SDS011;48391;49.184;2.418;2022-08-04T01:26:59;2.13;;;1.70;;
62353;SDS011;48391;49.184;2.418;2022-08-04T01:29:27;1.48;;;1.20;;
62353;SDS011;48391;49.184;2.418;2022-08-04T01:34:34;5.63;;;2.35;;
62353;SDS011;48391;49.184;2.418;2022-08-04T01:37:07;1.77;;;1.65;;
62353;SDS011;48391;49.184;2.418;2022-08-04T01:39:37;2.70;;;1.50;;
62353;SDS011;48391;49.184;2.418;2022-08-04T01:42:08;5.15;;;2.22;;
62353;SDS011;48391;49.184;2.418;2022-08-04T01:44:35;5.40;;;2.40;;
62353;SDS011;48391;49.184;2.418;2022-08-04T01:47:01;4.68;;;1.33;;
62353;SDS011;48391;49.184;2.418;2022-08-04T01:49:30;2.35;;;1.30;;
62353;SDS011;48391;49.184;2.418;2022-08-04T01:51:58;6.15;;;1.75;;
62353;SDS011;48391;49.184;2.418;2022-08-04T01:54:25;2.60;;;1.35;;
62353;SDS011;48391;49.184;2.418;2022-08-04T01:56:52;4.28;;;2.33;;
62353;SDS011;48391;49.184;2.418;2022-08-04T01:59:19;2.80;;;1.40;;
62353;SDS011;48391;49.184;2.418;2022-08-04T02:01:45;3.10;;;1.73;;
62353;SDS011;48391;49.184;2.418;2022-08-04T02:04:15;3.75;;;1.88;;
62353;SDS011;48391;49.184;2.418;2022-08-04T02:11:44;3.22;;;1.50;;
62353;SDS011;48391;49.184;2.418;2022-08-04T02:14:26;2.55;;;1.55;;
62353;SDS011;48391;49.184;2.418;2022-08-04T02:17:09;1.90;;;1.27;;
62353;SDS011;48391;49.184;2.418;2022-08-04T02:19:39;6.07;;;1.75;;
62353;SDS011;48391;49.184;2.418;2022-08-04T02:22:12;3.85;;;1.60;;
62353;SDS011;48391;49.184;2.418;2022-08-04T02:25:24;2.80;;;1.45;;
62353;SDS011;48391;49.184;2.418;2022-08-04T02:27:31;1.92;;;1.02;;
62353;SDS011;48391;49.184;2.418;2022-08-04T02:30:03;7.10;;;1.42;;
62353;SDS011;48391;49.184;2.418;2022-08-04T02:32:30;5.43;;;1.98;;
62353;SDS011;48391;49.184;2.418;2022-08-04T02:35:04;3.10;;;1.40;;
62353;SDS011;48391;49.184;2.418;2022-08-04T02:37:31;5.93;;;2.33;;
62353;SDS011;48391;49.184;2.418;2022-08-04T02:39:58;2.30;;;1.58;;
62353;SDS011;48391;49.184;2.418;2022-08-04T02:42:25;1.70;;;1.60;;
62353;SDS011;48391;49.184;2.418;2022-08-04T02:44:51;3.25;;;1.35;;
62353;SDS011;48391;49.184;2.418;2022-08-04T08:15:46;5.40;;;1.38;;
62353;SDS011;48391;49.184;2.418;2022-08-04T08:18:13;2.33;;;1.25;;
62353;SDS011;48391;49.184;2.418;2022-08-04T08:20:42;6.38;;;1.00;;
62353;SDS011;48391;49.184;2.418;2022-08-04T08:23:08;1.70;;;0.70;;
62353;SDS011;48391;49.184;2.418;2022-08-04T08:25:34;2.15;;;0.85;;
62353;SDS011;48391;49.184;2.418;2022-08-04T08:28:01;6.63;;;1.83;;
62353;SDS011;48391;49.184;2.418;2022-08-04T08:30:28;2.15;;;0.68;;
62353;SDS011;48391;49.184;2.418;2022-08-04T08:32:54;2.00;;;0.68;;
62353;SDS011;48391;49.184;2.418;2022-08-04T08:35:20;6.00;;;1.10;;
62353;SDS011;48391;49.184;2.418;2022-08-04T08:37:53;1.33;;;0.93;;
62353;SDS011;48391;49.184;2.418;2022-08-04T08:52:57;0.82;;;0.20;;
62353;SDS011;48391;49.184;2.418;2022-08-04T09:01:02;3.20;;;0.40;;
62353;SDS011;48391;49.184;2.418;2022-08-04T09:03:40;0.75;;;0.22;;
62353;SDS011;48391;49.184;2.418;2022-08-04T09:11:37;4.13;;;0.40;;
62353;SDS011;48391;49.184;2.418;2022-08-04T09:14:19;1.38;;;0.50;;
62353;SDS011;48391;49.184;2.418;2022-08-04T09:16:56;0.38;;;0.20;;
62353;SDS011;48391;49.184;2.418;2022-08-04T09:19:27;1.10;;;0.35;;
62353;SDS011;48391;49.184;2.418;2022-08-04T09:24:29;1.30;;;0.68;;
62353;SDS011;48391;49.184;2.418;2022-08-04T09:27:02;30.88;;;3.10;;
62353;SDS011;48391;49.184;2.418;2022-08-04T09:29:36;5.47;;;0.35;;
62353;SDS011;48391;49.184;2.418;2022-08-04T09:32:13;0.45;;;0.45;;
62353;SDS011;48391;49.184;2.418;2022-08-04T09:37:10;1.80;;;0.32;;
62353;SDS011;48391;49.184;2.418;2022-08-04T09:39:53;4.50;;;0.30;;
62353;SDS011;48391;49.184;2.418;2022-08-04T09:45:15;1.95;;;0.30;;
62353;SDS011;48391;49.184;2.418;2022-08-04T09:47:45;0.60;;;0.20;;
62353;SDS011;48391;49.184;2.418;2022-08-04T09:58:04;0.60;;;0.40;;
62353;SDS011;48391;49.184;2.418;2022-08-04T10:00:33;2.28;;;1.73;;
62353;SDS011;48391;49.184;2.418;2022-08-04T10:03:01;1.05;;;0.47;;
62353;SDS011;48391;49.184;2.418;2022-08-04T10:20:59;0.22;;;0.20;;
62353;SDS011;48391;49.184;2.418;2022-08-04T10:28:21;0.40;;;0.10;;
62353;SDS011;48391;49.184;2.418;2022-08-04T10:30:48;5.55;;;0.43;;
62353;SDS011;48391;49.184;2.418;2022-08-04T10:33:32;2.10;;;0.20;;
62353;SDS011;48391;49.184;2.418;2022-08-04T10:36:03;2.20;;;0.30;;
62353;SDS011;48391;49.184;2.418;2022-08-04T10:38:32;0.73;;;0.13;;
62353;SDS011;48391;49.184;2.418;2022-08-04T10:48:57;4.85;;;3.60;;
62353;SDS011;48391;49.184;2.418;2022-08-04T10:53:56;3.60;;;1.75;;
62353;SDS011;48391;49.184;2.418;2022-08-04T10:56:28;1.27;;;0.17;;
62353;SDS011;48391;49.184;2.418;2022-08-04T10:58:58;3.60;;;0.32;;
62353;SDS011;48391;49.184;2.418;2022-08-04T11:01:28;4.90;;;0.63;;
62353;SDS011;48391;49.184;2.418;2022-08-04T11:03:57;2.28;;;0.95;;
62353;SDS011;48391;49.184;2.418;2022-08-04T11:06:24;2.25;;;0.30;;
62353;SDS011;48391;49.184;2.418;2022-08-04T11:08:52;0.85;;;0.20;;
62353;SDS011;48391;49.184;2.418;2022-08-04T11:16:45;1.35;;;0.55;;
62353;SDS011;48391;49.184;2.418;2022-08-04T11:19:37;1.90;;;1.02;;
62353;SDS011;48391;49.184;2.418;2022-08-04T11:24:39;1.38;;;0.50;;
62353;SDS011;48391;49.184;2.418;2022-08-04T11:32:46;2.17;;;0.40;;
62353;SDS011;48391;49.184;2.418;2022-08-04T11:35:15;0.50;;;0.50;;
62353;SDS011;48391;49.184;2.418;2022-08-04T11:37:45;1.60;;;0.60;;
62353;SDS011;48391;49.184;2.418;2022-08-04T11:40:23;0.68;;;0.35;;
62353;SDS011;48391;49.184;2.418;2022-08-04T11:42:56;3.33;;;0.30;;
62353;SDS011;48391;49.184;2.418;2022-08-04T11:45:35;1.65;;;0.55;;
62353;SDS011;48391;49.184;2.418;2022-08-04T11:48:03;3.22;;;0.65;;
62353;SDS011;48391;49.184;2.418;2022-08-04T11:50:35;0.73;;;0.30;;
62353;SDS011;48391;49.184;2.418;2022-08-04T11:53:05;4.78;;;0.85;;
62353;SDS011;48391;49.184;2.418;2022-08-04T11:55:31;1.27;;;0.63;;
62353;SDS011;48391;49.184;2.418;2022-08-04T11:57:58;1.40;;;0.50;;
62353;SDS011;48391;49.184;2.418;2022-08-04T12:00:25;3.05;;;0.68;;
62353;SDS011;48391;49.184;2.418;2022-08-04T12:05:42;1.70;;;0.55;;
62353;SDS011;48391;49.184;2.418;2022-08-04T12:10:41;4.72;;;0.80;;
62353;SDS011;48391;49.184;2.418;2022-08-04T12:15:55;2.95;;;0.80;;
62353;SDS011;48391;49.184;2.418;2022-08-04T12:20:49;1.23;;;1.10;;
62353;SDS011;48391;49.184;2.418;2022-08-04T12:23:19;3.10;;;1.15;;
62353;SDS011;48391;49.184;2.418;2022-08-04T12:25:47;2.25;;;1.25;;
62353;SDS011;48391;49.184;2.418;2022-08-04T12:28:28;1.58;;;1.10;;
62353;SDS011;48391;49.184;2.418;2022-08-04T12:30:58;3.55;;;1.30;;
62353;SDS011;48391;49.184;2.418;2022-08-04T12:33:30;7.88;;;1.27;;
62353;SDS011;48391;49.184;2.418;2022-08-04T12:38:48;6.55;;;1.08;;
62353;SDS011;48391;49.184;2.418;2022-08-04T12:41:20;4.60;;;1.42;;
62353;SDS011;48391;49.184;2.418;2022-08-04T12:43:48;1.83;;;0.90;;
62353;SDS011;48391;49.184;2.418;2022-08-04T12:46:32;2.20;;;0.80;;
62353;SDS011;48391;49.184;2.418;2022-08-04T12:49:00;0.55;;;0.52;;
62353;SDS011;48391;49.184;2.418;2022-08-04T12:51:27;1.75;;;0.90;;
62353;SDS011;48391;49.184;2.418;2022-08-04T12:53:53;1.08;;;0.90;;
62353;SDS011;48391;49.184;2.418;2022-08-04T12:56:26;1.52;;;0.93;;
62353;SDS011;48391;49.184;2.418;2022-08-04T12:59:01;2.35;;;0.95;;
62353;SDS011;48391;49.184;2.418;2022-08-04T13:01:27;2.30;;;0.80;;
62353;SDS011;48391;49.184;2.418;2022-08-04T13:06:24;1.15;;;0.90;;
62353;SDS011;48391;49.184;2.418;2022-08-04T13:08:51;2.00;;;0.88;;
62353;SDS011;48391;49.184;2.418;2022-08-04T13:11:17;1.38;;;0.85;;
62353;SDS011;48391;49.184;2.418;2022-08-04T13:13:43;4.07;;;1.38;;
62353;SDS011;48391;49.184;2.418;2022-08-04T13:16:10;5.60;;;1.45;;
62353;SDS011;48391;49.184;2.418;2022-08-04T13:18:37;1.13;;;0.82;;
62353;SDS011;48391;49.184;2.418;2022-08-04T13:21:08;1.67;;;1.00;;
62353;SDS011;48391;49.184;2.418;2022-08-04T13:23:34;1.63;;;1.27;;
62353;SDS011;48391;49.184;2.418;2022-08-04T13:26:01;4.22;;;1.38;;
62353;SDS011;48391;49.184;2.418;2022-08-04T13:28:28;1.67;;;1.02;;
62353;SDS011;48391;49.184;2.418;2022-08-04T13:30:58;6.32;;;1.13;;
62353;SDS011;48391;49.184;2.418;2022-08-04T13:33:39;1.13;;;0.85;;
62353;SDS011;48391;49.184;2.418;2022-08-04T13:36:06;2.17;;;0.93;;
62353;SDS011;48391;49.184;2.418;2022-08-04T13:38:33;11.02;;;1.90;;
62353;SDS011;48391;49.184;2.418;2022-08-04T13:41:04;1.63;;;0.98;;
62353;SDS011;48391;49.184;2.418;2022-08-04T13:43:39;1.95;;;1.00;;
62353;SDS011;48391;49.184;2.418;2022-08-04T13:46:05;0.93;;;0.93;;
62353;SDS011;48391;49.184;2.418;2022-08-04T13:48:32;2.05;;;0.98;;
62353;SDS011;48391;49.184;2.418;2022-08-04T13:51:05;4.25;;;1.00;;
62353;SDS011;48391;49.184;2.418;2022-08-04T13:53:32;1.80;;;1.15;;
62353;SDS011;48391;49.184;2.418;2022-08-04T13:55:59;3.85;;;1.10;;
62353;SDS011;48391;49.184;2.418;2022-08-04T13:58:25;1.20;;;1.05;;
62353;SDS011;48391;49.184;2.418;2022-08-04T14:00:58;1.45;;;1.02;;
62353;SDS011;48391;49.184;2.418;2022-08-04T14:03:29;1.25;;;1.15;;
62353;SDS011;48391;49.184;2.418;2022-08-04T14:08:35;1.08;;;1.08;;
62353;SDS011;48391;49.184;2.418;2022-08-04T14:11:08;2.85;;;1.02;;
62353;SDS011;48391;49.184;2.418;2022-08-04T14:13:35;1.98;;;1.00;;
62353;SDS011;48391;49.184;2.418;2022-08-04T14:16:01;3.42;;;1.92;;
62353;SDS011;48391;49.184;2.418;2022-08-04T14:18:38;3.17;;;1.27;;
62353;SDS011;48391;49.184;2.418;2022-08-04T14:21:11;1.50;;;0.93;;
62353;SDS011;48391;49.184;2.418;2022-08-04T14:28:49;0.60;;;0.60;;
62353;SDS011;48391;49.184;2.418;2022-08-04T14:31:17;2.05;;;1.00;;
62353;SDS011;48391;49.184;2.418;2022-08-04T14:33:43;0.98;;;0.98;;
62353;SDS011;48391;49.184;2.418;2022-08-04T14:36:10;2.03;;;1.08;;
62353;SDS011;48391;49.184;2.418;2022-08-04T14:41:08;1.63;;;0.63;;
62353;SDS011;48391;49.184;2.418;2022-08-04T14:43:41;1.38;;;1.00;;
62353;SDS011;48391;49.184;2.418;2022-08-04T14:46:07;4.07;;;1.08;;
62353;SDS011;48391;49.184;2.418;2022-08-04T14:48:35;0.90;;;0.65;;
62353;SDS011;48391;49.184;2.418;2022-08-04T14:51:01;1.50;;;1.00;;
62353;SDS011;48391;49.184;2.418;2022-08-04T14:53:27;1.88;;;1.05;;
62353;SDS011;48391;49.184;2.418;2022-08-04T14:55:54;1.95;;;0.85;;
62353;SDS011;48391;49.184;2.418;2022-08-04T14:58:25;4.45;;;0.93;;
62353;SDS011;48391;49.184;2.418;2022-08-04T15:00:52;4.30;;;1.05;;
62353;SDS011;48391;49.184;2.418;2022-08-04T15:03:19;3.20;;;1.17;;
62353;SDS011;48391;49.184;2.418;2022-08-04T15:08:15;3.95;;;1.05;;
62353;SDS011;48391;49.184;2.418;2022-08-04T15:10:42;5.60;;;1.05;;
62353;SDS011;48391;49.184;2.418;2022-08-04T15:13:08;3.67;;;0.80;;
62353;SDS011;48391;49.184;2.418;2022-08-04T15:15:37;3.05;;;1.05;;
62353;SDS011;48391;49.184;2.418;2022-08-04T15:18:03;5.68;;;1.25;;
62353;SDS011;48391;49.184;2.418;2022-08-04T15:20:31;3.42;;;1.73;;
62353;SDS011;48391;49.184;2.418;2022-08-04T15:22:57;5.35;;;1.08;;
62353;SDS011;48391;49.184;2.418;2022-08-04T15:25:23;1.48;;;1.02;;
62353;SDS011;48391;49.184;2.418;2022-08-04T15:27:49;5.53;;;1.10;;
62353;SDS011;48391;49.184;2.418;2022-08-04T15:30:16;4.13;;;1.25;;
62353;SDS011;48391;49.184;2.418;2022-08-04T15:32:46;6.47;;;1.05;;
62353;SDS011;48391;49.184;2.418;2022-08-04T15:35:19;5.38;;;1.05;;
62353;SDS011;48391;49.184;2.418;2022-08-04T15:45:28;2.50;;;1.50;;
62353;SDS011;48391;49.184;2.418;2022-08-04T15:50:25;2.10;;;1.00;;
62353;SDS011;48391;49.184;2.418;2022-08-04T15:57:58;1.73;;;1.27;;
62353;SDS011;48391;49.184;2.418;2022-08-04T16:00:24;3.72;;;2.28;;
62353;SDS011;48391;49.184;2.418;2022-08-04T16:02:50;7.57;;;2.63;;
62353;SDS011;48391;49.184;2.418;2022-08-04T16:07:51;3.92;;;1.70;;
62353;SDS011;48391;49.184;2.418;2022-08-04T16:10:33;4.90;;;1.67;;
62353;SDS011;48391;49.184;2.418;2022-08-04T16:13:19;4.63;;;1.90;;
62353;SDS011;48391;49.184;2.418;2022-08-04T16:15:49;5.63;;;2.13;;
62353;SDS011;48391;49.184;2.418;2022-08-04T16:18:20;3.53;;;1.92;;
62353;SDS011;48391;49.184;2.418;2022-08-04T16:20:46;6.25;;;2.13;;
62353;SDS011;48391;49.184;2.418;2022-08-04T16:23:21;3.95;;;2.10;;
62353;SDS011;48391;49.184;2.418;2022-08-04T16:25:51;4.13;;;1.85;;
62353;SDS011;48391;49.184;2.418;2022-08-04T16:31:02;4.60;;;1.73;;
62353;SDS011;48391;49.184;2.418;2022-08-04T16:33:29;5.35;;;2.65;;
62353;SDS011;48391;49.184;2.418;2022-08-04T16:35:55;3.80;;;1.98;;
62353;SDS011;48391;49.184;2.418;2022-08-04T16:38:21;4.47;;;2.17;;
62353;SDS011;48391;49.184;2.418;2022-08-04T16:40:54;6.43;;;2.85;;
62353;SDS011;48391;49.184;2.418;2022-08-04T16:43:21;4.03;;;1.92;;
62353;SDS011;48391;49.184;2.418;2022-08-04T16:48:43;2.55;;;2.03;;
62353;SDS011;48391;49.184;2.418;2022-08-04T16:51:32;5.15;;;2.13;;
62353;SDS011;48391;49.184;2.418;2022-08-04T16:53:58;3.55;;;1.67;;
62353;SDS011;48391;49.184;2.418;2022-08-04T16:56:29;3.05;;;2.33;;
62353;SDS011;48391;49.184;2.418;2022-08-04T16:58:55;4.22;;;2.20;;
62353;SDS011;48391;49.184;2.418;2022-08-04T17:01:21;2.08;;;1.88;;
62353;SDS011;48391;49.184;2.418;2022-08-04T17:03:48;4.40;;;2.47;;
62353;SDS011;48391;49.184;2.418;2022-08-04T17:06:15;4.60;;;2.00;;
62353;SDS011;48391;49.184;2.418;2022-08-04T17:08:42;12.50;;;2.95;;
62353;SDS011;48391;49.184;2.418;2022-08-04T17:11:08;3.63;;;2.47;;
62353;SDS011;48391;49.184;2.418;2022-08-04T17:16:02;6.35;;;2.67;;
62353;SDS011;48391;49.184;2.418;2022-08-04T17:18:32;7.20;;;3.42;;
62353;SDS011;48391;49.184;2.418;2022-08-04T17:23:32;5.75;;;3.45;;
62353;SDS011;48391;49.184;2.418;2022-08-04T17:26:08;5.35;;;3.00;;
62353;SDS011;48391;49.184;2.418;2022-08-04T17:28:35;4.57;;;2.70;;
62353;SDS011;48391;49.184;2.418;2022-08-04T17:31:02;4.45;;;3.20;;
62353;SDS011;48391;49.184;2.418;2022-08-04T17:33:28;3.70;;;3.20;;
62353;SDS011;48391;49.184;2.418;2022-08-04T17:35:56;2.72;;;2.50;;
62353;SDS011;48391;49.184;2.418;2022-08-04T17:38:27;4.22;;;3.42;;
62353;SDS011;48391;49.184;2.418;2022-08-04T17:40:58;3.20;;;2.58;;
62353;SDS011;48391;49.184;2.418;2022-08-04T17:54:05;2.40;;;2.20;;
62353;SDS011;48391;49.184;2.418;2022-08-04T17:59:10;2.75;;;2.00;;
62353;SDS011;48391;49.184;2.418;2022-08-04T18:01:50;5.40;;;2.63;;
62353;SDS011;48391;49.184;2.418;2022-08-04T18:06:59;8.07;;;2.97;;
62353;SDS011;48391;49.184;2.418;2022-08-04T18:09:27;4.10;;;2.08;;
62353;SDS011;48391;49.184;2.418;2022-08-04T18:12:06;2.97;;;2.35;;
62353;SDS011;48391;49.184;2.418;2022-08-04T18:14:36;11.30;;;2.03;;
62353;SDS011;48391;49.184;2.418;2022-08-04T18:17:03;3.30;;;2.28;;
62353;SDS011;48391;49.184;2.418;2022-08-04T18:19:29;4.53;;;2.35;;
62353;SDS011;48391;49.184;2.418;2022-08-04T18:21:55;3.35;;;2.08;;
62353;SDS011;48391;49.184;2.418;2022-08-04T18:24:21;6.75;;;2.53;;
62353;SDS011;48391;49.184;2.418;2022-08-04T18:26:47;3.33;;;1.63;;
62353;SDS011;48391;49.184;2.418;2022-08-04T18:29:13;2.67;;;1.70;;
62353;SDS011;48391;49.184;2.418;2022-08-04T18:31:39;3.45;;;1.60;;
62353;SDS011;48391;49.184;2.418;2022-08-04T18:34:05;4.95;;;1.65;;
62353;SDS011;48391;49.184;2.418;2022-08-04T18:36:32;4.55;;;1.58;;
62353;SDS011;48391;49.184;2.418;2022-08-04T18:38:59;7.63;;;1.85;;
62353;SDS011;48391;49.184;2.418;2022-08-04T18:41:26;2.80;;;1.60;;
62353;SDS011;48391;49.184;2.418;2022-08-04T18:43:52;4.45;;;1.67;;
62353;SDS011;48391;49.184;2.418;2022-08-04T18:46:18;1.83;;;1.52;;
62353;SDS011;48391;49.184;2.418;2022-08-04T18:48:44;3.55;;;1.77;;
62353;SDS011;48391;49.184;2.418;2022-08-04T18:51:10;5.32;;;2.08;;
62353;SDS011;48391;49.184;2.418;2022-08-04T18:53:36;4.88;;;1.92;;
62353;SDS011;48391;49.184;2.418;2022-08-04T18:56:03;1.52;;;1.30;;
62353;SDS011;48391;49.184;2.418;2022-08-04T18:58:29;3.03;;;1.27;;
62353;SDS011;48391;49.184;2.418;2022-08-04T19:00:55;7.32;;;1.38;;
62353;SDS011;48391;49.184;2.418;2022-08-04T19:03:22;4.43;;;1.20;;
62353;SDS011;48391;49.184;2.418;2022-08-04T19:05:48;2.95;;;1.83;;
62353;SDS011;48391;49.184;2.418;2022-08-04T19:08:14;6.22;;;1.58;;
62353;SDS011;48391;49.184;2.418;2022-08-04T19:10:40;2.15;;;1.27;;
62353;SDS011;48391;49.184;2.418;2022-08-04T19:13:06;4.63;;;1.60;;
62353;SDS011;48391;49.184;2.418;2022-08-04T19:15:32;4.95;;;1.67;;
62353;SDS011;48391;49.184;2.418;2022-08-04T19:17:58;7.43;;;1.92;;
62353;SDS011;48391;49.184;2.418;2022-08-04T19:20:24;3.50;;;1.38;;
62353;SDS011;48391;49.184;2.418;2022-08-04T19:22:50;7.03;;;2.17;;
62353;SDS011;48391;49.184;2.418;2022-08-04T19:25:16;3.80;;;1.27;;
62353;SDS011;48391;49.184;2.418;2022-08-04T19:27:42;6.35;;;1.80;;
62353;SDS011;48391;49.184;2.418;2022-08-04T19:30:08;13.55;;;2.00;;
62353;SDS011;48391;49.184;2.418;2022-08-04T19:32:34;3.25;;;1.45;;
62353;SDS011;48391;49.184;2.418;2022-08-04T19:35:00;6.45;;;2.35;;
62353;SDS011;48391;49.184;2.418;2022-08-04T19:37:26;5.70;;;1.52;;
62353;SDS011;48391;49.184;2.418;2022-08-04T19:39:52;2.45;;;1.52;;
62353;SDS011;48391;49.184;2.418;2022-08-04T19:42:18;2.95;;;1.55;;
62353;SDS011;48391;49.184;2.418;2022-08-04T19:44:44;4.90;;;2.17;;
62353;SDS011;48391;49.184;2.418;2022-08-04T19:47:10;4.45;;;1.33;;
62353;SDS011;48391;49.184;2.418;2022-08-04T19:49:36;2.10;;;1.40;;
62353;SDS011;48391;49.184;2.418;2022-08-04T19:52:02;2.17;;;1.20;;
62353;SDS011;48391;49.184;2.418;2022-08-04T19:54:29;2.75;;;1.00;;
62353;SDS011;48391;49.184;2.418;2022-08-04T19:56:56;6.95;;;1.08;;
62353;SDS011;48391;49.184;2.418;2022-08-04T19:59:22;3.55;;;1.80;;
62353;SDS011;48391;49.184;2.418;2022-08-04T20:01:48;1.42;;;1.10;;
62353;SDS011;48391;49.184;2.418;2022-08-04T20:04:14;3.75;;;1.52;;
62353;SDS011;48391;49.184;2.418;2022-08-04T20:06:40;3.05;;;1.17;;
62353;SDS011;48391;49.184;2.418;2022-08-04T20:09:06;3.25;;;1.77;;
62353;SDS011;48391;49.184;2.418;2022-08-04T20:11:32;2.63;;;1.15;;
62353;SDS011;48391;49.184;2.418;2022-08-04T20:13:58;2.65;;;1.42;;
62353;SDS011;48391;49.184;2.418;2022-08-04T20:16:24;3.92;;;1.42;;
62353;SDS011;48391;49.184;2.418;2022-08-04T20:18:50;4.90;;;1.58;;
62353;SDS011;48391;49.184;2.418;2022-08-04T20:21:16;3.88;;;1.42;;
62353;SDS011;48391;49.184;2.418;2022-08-04T20:23:42;3.95;;;1.90;;
62353;SDS011;48391;49.184;2.418;2022-08-04T20:26:08;3.33;;;1.20;;
62353;SDS011;48391;49.184;2.418;2022-08-04T20:28:34;3.63;;;1.80;;
62353;SDS011;48391;49.184;2.418;2022-08-04T20:31:01;3.53;;;2.10;;
62353;SDS011;48391;49.184;2.418;2022-08-04T20:33:27;4.05;;;1.75;;
62353;SDS011;48391;49.184;2.418;2022-08-04T20:35:53;2.63;;;1.30;;
62353;SDS011;48391;49.184;2.418;2022-08-04T20:38:19;9.80;;;1.98;;
62353;SDS011;48391;49.184;2.418;2022-08-04T20:40:45;8.68;;;1.85;;
62353;SDS011;48391;49.184;2.418;2022-08-04T20:43:11;3.05;;;1.35;;
62353;SDS011;48391;49.184;2.418;2022-08-04T20:45:37;1.63;;;1.00;;
62353;SDS011;48391;49.184;2.418;2022-08-04T20:48:03;3.20;;;1.88;;
62353;SDS011;48391;49.184;2.418;2022-08-04T20:50:29;3.05;;;1.35;;
62353;SDS011;48391;49.184;2.418;2022-08-04T20:52:56;5.53;;;1.45;;
62353;SDS011;48391;49.184;2.418;2022-08-04T20:55:22;3.05;;;0.90;;
62353;SDS011;48391;49.184;2.418;2022-08-04T20:57:48;2.67;;;0.88;;
62353;SDS011;48391;49.184;2.418;2022-08-04T21:00:14;1.58;;;1.30;;
62353;SDS011;48391;49.184;2.418;2022-08-04T21:02:40;2.50;;;1.42;;
62353;SDS011;48391;49.184;2.418;2022-08-04T21:05:06;5.30;;;1.75;;
62353;SDS011;48391;49.184;2.418;2022-08-04T21:07:32;5.82;;;1.67;;
62353;SDS011;48391;49.184;2.418;2022-08-04T21:09:58;2.95;;;1.83;;
62353;SDS011;48391;49.184;2.418;2022-08-04T21:12:24;3.08;;;1.08;;
62353;SDS011;48391;49.184;2.418;2022-08-04T21:14:51;2.05;;;1.58;;
62353;SDS011;48391;49.184;2.418;2022-08-04T21:17:17;6.55;;;2.05;;
62353;SDS011;48391;49.184;2.418;2022-08-04T21:19:43;2.65;;;1.40;;
62353;SDS011;48391;49.184;2.418;2022-08-04T21:22:09;4.43;;;1.55;;
62353;SDS011;48391;49.184;2.418;2022-08-04T21:24:35;3.17;;;1.65;;
62353;SDS011;48391;49.184;2.418;2022-08-04T21:27:03;3.80;;;1.63;;
62353;SDS011;48391;49.184;2.418;2022-08-04T21:29:32;3.30;;;1.58;;
62353;SDS011;48391;49.184;2.418;2022-08-04T21:31:59;5.80;;;1.70;;
62353;SDS011;48391;49.184;2.418;2022-08-04T21:34:25;4.38;;;1.27;;
62353;SDS011;48391;49.184;2.418;2022-08-04T21:36:51;1.65;;;1.55;;
62353;SDS011;48391;49.184;2.418;2022-08-04T21:39:17;2.17;;;1.55;;
62353;SDS011;48391;49.184;2.418;2022-08-04T21:41:43;2.75;;;1.30;;
62353;SDS011;48391;49.184;2.418;2022-08-04T21:44:09;5.25;;;1.63;;
62353;SDS011;48391;49.184;2.418;2022-08-04T21:46:35;3.67;;;1.45;;
62353;SDS011;48391;49.184;2.418;2022-08-04T21:49:02;4.18;;;1.38;;
62353;SDS011;48391;49.184;2.418;2022-08-04T21:51:32;3.42;;;1.60;;
62353;SDS011;48391;49.184;2.418;2022-08-04T21:53:58;4.82;;;1.50;;
62353;SDS011;48391;49.184;2.418;2022-08-04T21:56:25;4.00;;;1.63;;
62353;SDS011;48391;49.184;2.418;2022-08-04T21:58:50;3.40;;;1.77;;
62353;SDS011;48391;49.184;2.418;2022-08-04T22:01:16;2.67;;;1.30;;
62353;SDS011;48391;49.184;2.418;2022-08-04T22:03:43;3.92;;;2.10;;
62353;SDS011;48391;49.184;2.418;2022-08-04T22:06:10;4.28;;;1.67;;
62353;SDS011;48391;49.184;2.418;2022-08-04T22:08:36;3.78;;;1.73;;
62353;SDS011;48391;49.184;2.418;2022-08-04T22:11:03;6.50;;;2.17;;
62353;SDS011;48391;49.184;2.418;2022-08-04T22:13:30;4.85;;;1.55;;
62353;SDS011;48391;49.184;2.418;2022-08-04T22:15:56;5.47;;;1.50;;
62353;SDS011;48391;49.184;2.418;2022-08-04T22:18:23;2.88;;;1.92;;
62353;SDS011;48391;49.184;2.418;2022-08-04T22:20:49;5.70;;;1.80;;
62353;SDS011;48391;49.184;2.418;2022-08-04T22:23:15;3.72;;;1.48;;
62353;SDS011;48391;49.184;2.418;2022-08-04T22:25:41;4.15;;;1.60;;
62353;SDS011;48391;49.184;2.418;2022-08-04T22:28:07;4.28;;;1.20;;
62353;SDS011;48391;49.184;2.418;2022-08-04T22:30:34;4.65;;;1.98;;
62353;SDS011;48391;49.184;2.418;2022-08-04T22:33:01;7.20;;;2.35;;
62353;SDS011;48391;49.184;2.418;2022-08-04T22:35:28;4.50;;;2.35;;
62353;SDS011;48391;49.184;2.418;2022-08-04T22:37:54;3.88;;;2.10;;
62353;SDS011;48391;49.184;2.418;2022-08-04T22:40:21;5.70;;;2.30;;
62353;SDS011;48391;49.184;2.418;2022-08-04T22:42:47;6.18;;;1.50;;
62353;SDS011;48391;49.184;2.418;2022-08-04T22:45:13;3.72;;;1.38;;
62353;SDS011;48391;49.184;2.418;2022-08-04T22:47:39;6.10;;;1.35;;
62353;SDS011;48391;49.184;2.418;2022-08-04T22:50:05;5.50;;;2.42;;
62353;SDS011;48391;49.184;2.418;2022-08-04T22:52:31;11.73;;;2.55;;
62353;SDS011;48391;49.184;2.418;2022-08-04T22:54:57;3.92;;;1.60;;
62353;SDS011;48391;49.184;2.418;2022-08-04T22:57:24;3.22;;;1.52;;
62353;SDS011;48391;49.184;2.418;2022-08-04T22:59:50;2.05;;;1.50;;
62353;SDS011;48391;49.184;2.418;2022-08-04T23:02:16;5.60;;;1.55;;
62353;SDS011;48391;49.184;2.418;2022-08-04T23:04:42;5.03;;;2.05;;
62353;SDS011;48391;49.184;2.418;2022-08-04T23:07:08;4.97;;;1.42;;
62353;SDS011;48391;49.184;2.418;2022-08-04T23:09:34;2.30;;;1.98;;
62353;SDS011;48391;49.184;2.418;2022-08-04T23:12:00;5.65;;;1.48;;
62353;SDS011;48391;49.184;2.418;2022-08-04T23:14:26;4.43;;;1.75;;
62353;SDS011;48391;49.184;2.418;2022-08-04T23:16:52;5.32;;;2.13;;
62353;SDS011;48391;49.184;2.418;2022-08-04T23:19:18;2.95;;;1.50;;
62353;SDS011;48391;49.184;2.418;2022-08-04T23:21:44;2.55;;;1.70;;
62353;SDS011;48391;49.184;2.418;2022-08-04T23:24:10;2.17;;;1.13;;
62353;SDS011;48391;49.184;2.418;2022-08-04T23:26:36;13.70;;;3.42;;
62353;SDS011;48391;49.184;2.418;2022-08-04T23:29:02;5.38;;;1.48;;
62353;SDS011;48391;49.184;2.418;2022-08-04T23:31:28;3.42;;;2.03;;
62353;SDS011;48391;49.184;2.418;2022-08-04T23:33:54;4.47;;;1.92;;
62353;SDS011;48391;49.184;2.418;2022-08-04T23:36:20;3.50;;;1.98;;
62353;SDS011;48391;49.184;2.418;2022-08-04T23:38:47;3.35;;;1.70;;
62353;SDS011;48391;49.184;2.418;2022-08-04T23:41:14;6.88;;;2.08;;
62353;SDS011;48391;49.184;2.418;2022-08-04T23:43:43;3.80;;;1.85;;